Time;durP1;ratioP1;P1;durP2;ratioP2;P2;SDS_P1;SDS_P2;PMS_P1;PMS_P2;Temp;Humidity;BMP_temperature;BMP_pressure;BME280_temperature;BME280_humidity;BME280_pressure;Samples;Min_cycle;Max_cycle;Signal;HPM_P1;HPM_P2
2022/08/10 00:01:01;;;;;;;2.38;1.70;;;21.20;1.00;;;;;;7354179;19;20017;-70
2022/08/10 00:03:33;;;;;;;2.88;2.10;;;21.20;1.00;;;;;;7361758;19;20003;-70
2022/08/10 00:06:03;;;;;;;3.05;2.13;;;21.20;1.00;;;;;;7367209;19;20013;-71
2022/08/10 00:08:35;;;;;;;2.05;1.73;;;21.20;1.00;;;;;;7345773;19;20033;-70
2022/08/10 00:11:05;;;;;;;2.38;1.75;;;21.20;1.00;;;;;;7384827;19;20086;-70
2022/08/10 00:13:44;;;;;;;4.15;1.98;;;21.20;1.00;;;;;;7363829;19;20070;-71
2022/08/10 00:16:19;;;;;;;2.05;1.70;;;21.20;1.00;;;;;;7365407;19;20086;-70
2022/08/10 00:18:50;;;;;;;2.97;1.83;;;21.30;1.00;;;;;;7343217;19;20382;-71
2022/08/10 00:21:20;;;;;;;5.68;1.80;;;21.20;1.00;;;;;;7364120;19;20024;-71
2022/08/10 00:23:55;;;;;;;3.50;1.92;;;21.20;1.00;;;;;;7365085;19;20089;-70
2022/08/10 00:26:25;;;;;;;3.42;1.98;;;21.00;1.00;;;;;;7366977;19;20465;-71
2022/08/10 00:29:15;;;;;;;3.40;2.10;;;20.90;1.00;;;;;;7341392;19;20018;-69
2022/08/10 00:31:47;;;;;;;2.67;1.55;;;21.00;1.00;;;;;;7388111;19;20526;-70
2022/08/10 00:34:28;;;;;;;3.05;2.00;;;21.00;1.00;;;;;;7366382;19;20034;-71
2022/08/10 00:36:59;;;;;;;2.10;1.90;;;20.80;1.00;;;;;;7360844;19;20014;-70
2022/08/10 00:39:30;;;;;;;5.07;1.90;;;20.70;1.00;;;;;;7341726;19;20014;-71
2022/08/10 00:42:08;;;;;;;3.45;1.70;;;20.70;1.00;;;;;;7367152;19;20500;-70
2022/08/10 00:44:39;;;;;;;5.00;1.80;;;20.70;1.00;;;;;;7364145;19;20022;-71
2022/08/10 00:47:12;;;;;;;4.03;1.98;;;20.70;1.00;;;;;;7387718;19;20010;-70
2022/08/10 00:50:03;;;;;;;2.67;1.70;;;20.60;1.00;;;;;;7342320;19;20010;-70
2022/08/10 00:52:34;;;;;;;2.38;1.70;;;20.60;1.00;;;;;;7365801;19;20081;-71
2022/08/10 00:55:06;;;;;;;2.10;1.75;;;20.60;1.00;;;;;;7364904;19;20034;-69
2022/08/10 00:57:36;;;;;;;2.90;1.92;;;20.60;1.00;;;;;;7361423;19;20106;-70
2022/08/10 01:00:09;;;;;;;3.80;1.80;;;20.60;1.00;;;;;;7344496;19;20031;-70
2022/08/10 01:02:41;;;;;;;3.10;1.90;;;20.60;1.00;;;;;;7366615;19;20089;-69
2022/08/10 01:05:15;;;;;;;2.42;1.92;;;20.50;1.00;;;;;;7362480;19;20038;-70
2022/08/10 01:08:16;;;;;;;4.13;1.80;;;20.50;1.00;;;;;;7376755;19;20026;-70
2022/08/10 01:11:00;;;;;;;2.78;1.80;;;20.50;1.00;;;;;;7358937;19;20007;-71
2022/08/10 01:13:36;;;;;;;5.43;1.80;;;20.40;1.00;;;;;;7362999;19;20024;-70
2022/08/10 01:16:13;;;;;;;1.90;1.70;;;20.30;1.00;;;;;;7358996;19;20010;-69
2022/08/10 01:18:55;;;;;;;2.50;1.83;;;20.30;1.00;;;;;;7345129;19;20127;-70
2022/08/10 01:22:04;;;;;;;2.25;1.90;;;20.30;1.00;;;;;;7361784;19;20418;-71
2022/08/10 01:25:04;;;;;;;3.15;1.90;;;20.20;1.00;;;;;;7364549;19;20007;-69
2022/08/10 01:27:41;;;;;;;2.13;1.80;;;20.10;1.00;;;;;;7364141;19;20029;-70
2022/08/10 01:30:17;;;;;;;7.85;1.98;;;20.00;1.00;;;;;;7345675;19;20006;-69
2022/08/10 01:32:52;;;;;;;3.45;2.00;;;19.90;1.00;;;;;;7363446;19;20010;-70
2022/08/10 01:35:30;;;;;;;3.20;2.28;;;19.70;1.00;;;;;;7364847;19;20018;-70
2022/08/10 01:38:06;;;;;;;4.07;1.90;;;19.60;1.00;;;;;;7371058;19;20102;-70
2022/08/10 01:40:41;;;;;;;6.25;2.10;;;19.60;1.00;;;;;;7357762;19;20091;-68
2022/08/10 01:43:14;;;;;;;2.55;1.70;;;19.60;1.00;;;;;;7364754;19;20070;-70
2022/08/10 01:45:49;;;;;;;2.85;2.05;;;19.50;1.00;;;;;;7363803;19;20010;-70
2022/08/10 01:48:30;;;;;;;2.45;2.00;;;19.50;1.00;;;;;;7343340;19;20078;-70
2022/08/10 01:51:20;;;;;;;2.28;1.70;;;19.50;1.00;;;;;;7358554;19;20010;-70
2022/08/10 01:53:56;;;;;;;2.80;2.22;;;19.40;1.00;;;;;;7362869;19;20069;-70
2022/08/10 01:56:29;;;;;;;3.72;2.00;;;19.30;1.00;;;;;;7363546;19;20015;-70
2022/08/10 01:59:01;;;;;;;3.78;2.10;;;19.20;1.00;;;;;;7363822;19;20014;-70
2022/08/10 02:01:39;;;;;;;3.60;2.10;;;19.10;1.00;;;;;;7361902;19;20006;-69
2022/08/10 02:04:17;;;;;;;3.20;2.10;;;19.00;1.00;;;;;;7362795;19;20454;-70
2022/08/10 02:06:50;;;;;;;2.60;1.98;;;18.90;1.00;;;;;;7360322;19;20015;-70
2022/08/10 02:09:23;;;;;;;3.28;2.45;;;18.90;1.00;;;;;;7341402;19;20013;-69
2022/08/10 02:11:55;;;;;;;3.70;2.10;;;18.90;1.00;;;;;;7364008;19;20021;-70
2022/08/10 02:14:44;;;;;;;3.70;2.05;;;18.90;1.00;;;;;;7360727;19;20019;-70
2022/08/10 02:17:21;;;;;;;4.95;2.00;;;18.90;1.00;;;;;;7362924;19;20607;-70
2022/08/10 02:20:15;;;;;;;3.97;1.90;;;19.10;1.00;;;;;;7359672;19;20014;-71
2022/08/10 02:22:46;;;;;;;2.50;2.13;;;19.30;1.00;;;;;;7384025;19;20026;-70
2022/08/10 02:25:20;;;;;;;3.05;2.22;;;19.40;1.00;;;;;;7363175;19;19999;-71
2022/08/10 02:28:11;;;;;;;3.38;1.75;;;19.40;1.00;;;;;;7340538;19;20022;-69
2022/08/10 02:30:58;;;;;;;2.65;2.20;;;19.40;1.00;;;;;;7357814;19;20054;-70
2022/08/10 02:33:32;;;;;;;3.08;2.33;;;19.40;1.00;;;;;;7359082;19;20011;-70
2022/08/10 02:36:09;;;;;;;3.97;2.30;;;19.40;1.00;;;;;;7360955;19;20015;-71
2022/08/10 02:38:44;;;;;;;4.97;2.10;;;19.30;1.00;;;;;;7343509;19;20021;-70
2022/08/10 02:41:36;;;;;;;6.57;2.47;;;19.30;1.00;;;;;;7361459;19;20026;-70
2022/08/10 02:44:31;;;;;;;3.03;2.45;;;19.30;1.00;;;;;;7361769;19;20014;-70
2022/08/10 02:47:28;;;;;;;3.55;2.38;;;19.20;1.00;;;;;;7359995;19;20018;-70
2022/08/10 02:50:26;;;;;;;2.90;2.05;;;19.20;1.00;;;;;;7343393;19;20014;-70
2022/08/10 02:53:01;;;;;;;2.95;1.75;;;19.10;1.00;;;;;;7384453;19;20489;-71
2022/08/10 02:55:42;;;;;;;2.92;2.10;;;19.20;1.00;;;;;;7362723;19;20010;-71
2022/08/10 02:58:15;;;;;;;2.33;1.90;;;19.10;1.00;;;;;;7342373;19;20017;-71
2022/08/10 03:00:52;;;;;;;2.30;2.00;;;19.10;1.00;;;;;;7355001;19;20038;-70
2022/08/10 03:03:38;;;;;;;8.30;2.63;;;19.00;1.00;;;;;;7360571;19;20033;-72
2022/08/10 03:06:15;;;;;;;2.75;2.28;;;18.90;1.00;;;;;;7359795;19;20101;-69
2022/08/10 03:08:46;;;;;;;2.70;2.30;;;18.80;1.00;;;;;;7342933;19;20025;-70
2022/08/10 03:11:23;;;;;;;2.50;2.10;;;18.80;1.00;;;;;;7357511;19;20365;-70
2022/08/10 03:14:15;;;;;;;4.50;2.35;;;18.80;1.00;;;;;;7348031;19;20007;-71
2022/08/10 03:16:47;;;;;;;4.93;2.38;;;18.80;1.00;;;;;;7383411;19;20474;-70
2022/08/10 03:19:19;;;;;;;2.55;2.25;;;18.70;1.00;;;;;;7354854;19;20088;-70
2022/08/10 03:22:13;;;;;;;2.20;1.90;;;18.60;1.00;;;;;;7364972;19;20019;-70
2022/08/10 03:24:44;;;;;;;5.93;2.17;;;18.50;1.00;;;;;;7363442;19;20014;-69
2022/08/10 03:27:15;;;;;;;2.67;2.40;;;18.40;1.00;;;;;;7364388;19;20078;-71
2022/08/10 03:29:46;;;;;;;4.20;2.47;;;18.40;1.00;;;;;;7357084;19;20006;-70
2022/08/10 03:32:36;;;;;;;2.83;2.08;;;18.30;1.00;;;;;;7364411;19;21114;-70
2022/08/10 03:35:11;;;;;;;2.65;2.03;;;18.20;1.00;;;;;;7385011;19;20014;-68
2022/08/10 03:37:44;;;;;;;3.13;2.35;;;18.20;1.00;;;;;;7360745;19;20011;-69
2022/08/10 03:40:14;;;;;;;4.78;2.10;;;18.10;1.00;;;;;;7365257;19;20014;-69
2022/08/10 03:42:45;;;;;;;2.90;2.30;;;18.20;1.00;;;;;;7373810;19;20659;-69
2022/08/10 03:45:17;;;;;;;3.42;2.30;;;18.20;1.00;;;;;;7372077;19;20002;-69
2022/08/10 03:47:49;;;;;;;3.10;2.35;;;18.10;1.00;;;;;;7366646;19;20010;-70
2022/08/10 03:50:19;;;;;;;6.07;2.75;;;18.10;1.00;;;;;;7366931;19;20087;-69
2022/08/10 03:53:12;;;;;;;3.13;2.55;;;18.00;1.00;;;;;;7394460;19;20006;-69
2022/08/10 03:56:03;;;;;;;3.55;2.30;;;17.90;1.00;;;;;;7371770;19;20006;-69
2022/08/10 03:58:53;;;;;;;10.07;3.50;;;18.00;1.00;;;;;;7364915;19;20014;-68
2022/08/10 04:01:23;;;;;;;3.03;2.72;;;17.90;1.00;;;;;;7368398;19;20028;-70
2022/08/10 04:04:16;;;;;;;3.60;2.80;;;17.90;1.00;;;;;;7368490;19;20018;-70
2022/08/10 04:06:53;;;;;;;6.20;3.50;;;17.90;1.00;;;;;;7365960;19;20018;-69
2022/08/10 04:09:28;;;;;;;9.15;4.55;;;17.90;1.00;;;;;;7360600;19;20081;-69
2022/08/10 04:12:18;;;;;;;6.57;3.70;;;17.80;1.00;;;;;;7368262;19;20002;-69
2022/08/10 04:14:48;;;;;;;8.27;3.85;;;17.70;1.00;;;;;;7366293;19;20003;-71
2022/08/10 04:17:26;;;;;;;5.05;3.25;;;17.70;1.00;;;;;;7367128;19;20007;-70
2022/08/10 04:20:20;;;;;;;7.47;3.53;;;17.70;1.00;;;;;;7362851;19;20557;-71
2022/08/10 04:22:54;;;;;;;7.60;3.42;;;17.70;1.00;;;;;;7393293;19;20466;-69
2022/08/10 04:25:27;;;;;;;6.07;3.40;;;17.70;1.00;;;;;;7370163;19;20014;-70
2022/08/10 04:27:58;;;;;;;4.47;2.53;;;17.70;1.00;;;;;;7365858;19;20017;-69
2022/08/10 04:30:29;;;;;;;4.20;2.78;;;17.80;1.00;;;;;;7368045;19;20086;-70
2022/08/10 04:33:01;;;;;;;2.67;2.30;;;18.10;1.00;;;;;;7371265;19;20011;-70
2022/08/10 04:35:33;;;;;;;4.35;2.50;;;19.40;1.00;;;;;;7368553;19;20087;-70
2022/08/10 04:38:11;;;;;;;5.57;2.75;;;20.40;1.00;;;;;;7391340;19;20121;-73
2022/08/10 04:40:44;;;;;;;3.15;2.50;;;20.60;1.00;;;;;;7368022;19;20536;-70
2022/08/10 04:43:15;;;;;;;3.77;2.40;;;21.30;1.00;;;;;;7369497;19;20159;-70
2022/08/10 04:45:46;;;;;;;5.10;2.83;;;21.70;1.00;;;;;;7370114;19;20260;-70
2022/08/10 04:48:23;;;;;;;3.45;2.40;;;21.70;1.00;;;;;;7367783;19;20016;-71
2022/08/10 04:51:15;;;;;;;3.33;2.42;;;22.00;1.00;;;;;;7363194;19;20006;-71
2022/08/10 04:53:47;;;;;;;4.65;2.20;;;22.10;1.00;;;;;;7370049;19;20094;-70
2022/08/10 04:56:40;;;;;;;4.43;2.40;;;22.90;1.00;;;;;;7367747;19;20042;-70
2022/08/10 04:59:12;;;;;;;4.22;2.13;;;23.20;1.00;;;;;;7390005;19;20010;-70
2022/08/10 05:01:43;;;;;;;5.38;2.40;;;24.20;1.00;;;;;;7365068;19;20016;-71
2022/08/10 05:04:33;;;;;;;2.67;2.20;;;23.90;1.00;;;;;;7368525;19;20010;-71
2022/08/10 05:07:09;;;;;;;2.28;1.73;;;24.70;1.00;;;;;;7366960;19;20065;-71
2022/08/10 05:09:39;;;;;;;3.20;2.22;;;24.40;1.00;;;;;;7363412;19;20040;-70
2022/08/10 05:12:32;;;;;;;4.70;2.10;;;24.20;1.00;;;;;;7369539;19;20347;-70
2022/08/10 05:15:06;;;;;;;3.50;2.10;;;25.00;1.00;;;;;;7367783;19;20508;-70
2022/08/10 05:17:37;;;;;;;4.38;2.22;;;24.60;1.00;;;;;;7367290;19;20055;-71
2022/08/10 05:20:10;;;;;;;2.50;2.00;;;24.90;1.00;;;;;;7384444;19;20011;-70
2022/08/10 05:22:42;;;;;;;2.38;1.65;;;25.40;1.00;;;;;;7370056;19;20017;-70
2022/08/10 05:25:21;;;;;;;3.30;2.22;;;25.20;1.00;;;;;;7368008;19;20011;-70
2022/08/10 05:27:53;;;;;;;3.90;2.20;;;24.70;1.00;;;;;;7364784;19;20398;-70
2022/08/10 05:30:26;;;;;;;3.30;2.15;;;25.30;1.00;;;;;;7364331;19;20097;-70
2022/08/10 05:32:56;;;;;;;3.00;2.25;;;25.00;1.00;;;;;;7368251;19;20438;-70
2022/08/10 05:35:32;;;;;;;3.22;2.30;;;24.00;1.00;;;;;;7367451;19;20013;-69
2022/08/10 05:38:24;;;;;;;4.28;2.00;;;23.50;1.00;;;;;;7366219;19;20013;-69
2022/08/10 05:40:58;;;;;;;3.88;2.28;;;23.50;1.00;;;;;;7385685;19;20045;-69
2022/08/10 05:43:31;;;;;;;3.58;2.10;;;24.50;1.00;;;;;;7367209;19;20074;-70
2022/08/10 05:46:00;;;;;;;4.85;2.22;;;24.70;1.00;;;;;;7367200;19;20015;-70
2022/08/10 05:48:49;;;;;;;3.30;2.55;;;24.10;1.00;;;;;;7364189;19;20015;-70
2022/08/10 05:51:30;;;;;;;6.25;1.85;;;24.90;1.00;;;;;;7361675;19;20024;-70
2022/08/10 05:54:01;;;;;;;2.72;2.03;;;23.90;1.00;;;;;;7368145;19;20018;-70
2022/08/10 05:56:37;;;;;;;3.50;2.15;;;21.70;1.00;;;;;;7365862;19;20006;-70
2022/08/10 05:59:32;;;;;;;4.95;2.17;;;21.40;1.00;;;;;;7365447;19;20018;-70
2022/08/10 06:02:28;;;;;;;2.05;1.88;;;20.90;1.00;;;;;;7367033;19;20710;-70
2022/08/10 06:05:07;;;;;;;3.28;2.38;;;21.30;1.00;;;;;;7388268;19;20015;-71
2022/08/10 06:07:41;;;;;;;2.47;2.00;;;21.50;1.00;;;;;;7365332;19;20011;-69
2022/08/10 06:10:15;;;;;;;2.72;2.20;;;21.50;1.00;;;;;;7363324;19;20010;-69
2022/08/10 06:16:09;;;;;;;2.88;2.10;;;21.60;1.00;;;;;;7364324;19;20695;-71
2022/08/10 06:18:39;;;;;;;3.22;1.90;;;21.60;1.00;;;;;;7365192;19;20078;-70
2022/08/10 06:21:10;;;;;;;2.95;1.90;;;21.70;1.00;;;;;;7362402;19;20014;-70
2022/08/10 06:23:40;;;;;;;2.97;2.10;;;21.80;1.00;;;;;;7368122;19;20002;-71
2022/08/10 06:26:10;;;;;;;6.10;2.33;;;21.70;1.00;;;;;;7388137;19;20462;-70
2022/08/10 06:28:50;;;;;;;4.80;2.55;;;21.60;1.00;;;;;;7365392;19;20010;-70
2022/08/10 06:31:36;;;;;;;4.18;1.80;;;21.90;1.00;;;;;;7361595;19;20094;-70
2022/08/10 06:34:20;;;;;;;4.85;2.10;;;22.10;1.00;;;;;;7366183;19;20043;-70
2022/08/10 06:36:51;;;;;;;5.05;2.22;;;22.20;1.00;;;;;;7364371;19;20066;-71
2022/08/10 06:39:23;;;;;;;5.75;2.00;;;22.40;1.00;;;;;;7365027;19;20086;-70
2022/08/10 06:42:17;;;;;;;3.70;2.28;;;22.30;1.00;;;;;;7366065;19;20006;-72
2022/08/10 06:45:00;;;;;;;2.75;2.03;;;22.30;1.00;;;;;;7365674;19;20855;-71
2022/08/10 06:47:43;;;;;;;5.60;2.20;;;22.10;1.00;;;;;;7364926;19;20018;-71
2022/08/10 06:50:17;;;;;;;5.53;1.90;;;22.60;1.00;;;;;;7364518;19;20014;-70
2022/08/10 06:53:12;;;;;;;4.85;2.28;;;22.70;1.00;;;;;;7389091;19;20010;-70
2022/08/10 06:55:46;;;;;;;2.42;2.00;;;22.70;1.00;;;;;;7364951;19;20028;-70
2022/08/10 06:58:30;;;;;;;5.30;2.20;;;22.80;1.00;;;;;;7362688;19;20045;-70
2022/08/10 07:01:04;;;;;;;2.08;1.63;;;23.00;1.00;;;;;;7358204;19;20109;-71
2022/08/10 07:03:38;;;;;;;;;;;22.80;1.00;;;;;;7364296;19;20035;-71
2022/08/10 07:06:09;;;;;;;2.97;2.03;;;22.90;1.00;;;;;;7363801;19;20370;-71
2022/08/10 07:08:41;;;;;;;2.90;1.80;;;23.30;1.00;;;;;;7362662;19;20014;-70
2022/08/10 07:11:17;;;;;;;2.75;1.77;;;23.30;1.00;;;;;;7380179;19;20042;-69
2022/08/10 07:13:48;;;;;;;4.22;1.88;;;23.30;1.00;;;;;;7363609;19;20014;-71
2022/08/10 07:16:41;;;;;;;2.92;1.80;;;23.20;1.00;;;;;;7364137;19;20014;-70
2022/08/10 07:19:15;;;;;;;3.65;1.95;;;23.70;1.00;;;;;;7361431;19;20036;-70
2022/08/10 07:21:46;;;;;;;4.95;1.77;;;23.30;1.00;;;;;;7361637;19;20007;-70
2022/08/10 07:24:18;;;;;;;5.45;2.00;;;23.30;1.00;;;;;;7364006;19;20014;-71
2022/08/10 07:26:51;;;;;;;3.38;1.75;;;23.90;1.00;;;;;;7363972;19;20012;-71
2022/08/10 07:29:26;;;;;;;1.70;1.48;;;24.00;1.00;;;;;;7364646;19;20010;-70
2022/08/10 07:32:17;;;;;;;5.43;2.10;;;23.80;1.00;;;;;;7364527;19;20046;-71
2022/08/10 07:34:52;;;;;;;4.13;1.80;;;23.60;1.00;;;;;;7386651;19;20018;-70
2022/08/10 07:37:25;;;;;;;4.00;2.08;;;24.00;1.00;;;;;;7363189;19;20010;-70
2022/08/10 07:39:56;;;;;;;2.10;1.95;;;24.20;1.00;;;;;;7357223;19;20054;-71
2022/08/10 07:42:34;;;;;;;2.65;1.88;;;24.30;1.00;;;;;;7363225;19;20014;-70
2022/08/10 07:45:05;;;;;;;3.67;1.60;;;24.30;1.00;;;;;;7362925;19;20022;-71
2022/08/10 07:47:39;;;;;;;14.48;1.85;;;24.60;1.00;;;;;;7362702;19;20090;-70
2022/08/10 07:50:27;;;;;;;5.47;1.77;;;24.80;1.00;;;;;;7360740;19;20011;-70
2022/08/10 07:53:04;;;;;;;4.38;1.70;;;24.80;1.00;;;;;;7385572;19;20021;-70
2022/08/10 07:55:34;;;;;;;4.97;1.58;;;24.80;1.00;;;;;;7363070;19;20015;-70
2022/08/10 07:58:30;;;;;;;3.17;1.88;;;24.60;1.00;;;;;;7361810;19;20066;-70
2022/08/10 08:01:01;;;;;;;6.78;1.80;;;24.30;1.00;;;;;;7359252;19;20116;-70
2022/08/10 08:03:32;;;;;;;5.07;1.70;;;24.40;1.00;;;;;;7361782;19;20015;-71
2022/08/10 08:06:07;;;;;;;3.13;1.60;;;24.70;1.00;;;;;;7363230;19;20039;-70
2022/08/10 08:08:44;;;;;;;3.70;1.55;;;25.00;1.00;;;;;;7361261;19;20031;-70
2022/08/10 08:11:16;;;;;;;2.90;1.50;;;25.00;1.00;;;;;;7359696;19;20525;-70
2022/08/10 08:13:57;;;;;;;3.42;1.50;;;24.70;1.00;;;;;;7385064;19;20007;-71
2022/08/10 08:16:27;;;;;;;3.38;1.65;;;24.80;1.00;;;;;;7361880;19;20077;-69
2022/08/10 08:18:58;;;;;;;3.45;1.40;;;25.30;1.00;;;;;;7361689;19;20015;-71
2022/08/10 08:21:52;;;;;;;6.38;1.45;;;25.70;1.00;;;;;;7359303;19;20553;-71
2022/08/10 08:24:43;;;;;;;3.25;1.17;;;25.80;1.00;;;;;;7364109;19;20419;-70
2022/08/10 08:27:15;;;;;;;3.83;1.50;;;25.60;1.00;;;;;;7368753;19;20117;-70
2022/08/10 08:29:47;;;;;;;1.75;1.30;;;25.30;1.00;;;;;;7366011;19;20010;-71
2022/08/10 08:32:21;;;;;;;5.45;1.60;;;25.30;1.00;;;;;;7369255;19;20034;-70
2022/08/10 08:34:55;;;;;;;3.50;1.60;;;25.50;1.00;;;;;;7390568;19;20015;-70
2022/08/10 08:37:29;;;;;;;;;;;25.60;1.00;;;;;;7368637;19;20014;-70
2022/08/10 08:40:24;;;;;;;4.22;1.50;;;25.40;1.00;;;;;;7363471;19;19954;-71
2022/08/10 08:43:21;;;;;;;5.30;1.50;;;26.10;1.00;;;;;;7369849;19;20010;-71
2022/08/10 08:46:27;;;;;;;2.90;1.48;;;26.20;1.00;;;;;;7367234;19;20028;-70
2022/08/10 08:49:13;;;;;;;7.93;1.73;;;26.30;1.00;;;;;;7366332;19;20465;-70
2022/08/10 08:52:17;;;;;;;3.63;1.40;;;26.40;1.00;;;;;;7366969;19;20081;-71
2022/08/10 08:55:04;;;;;;;5.28;1.65;;;26.10;1.00;;;;;;7368847;19;20121;-70
2022/08/10 08:58:07;;;;;;;2.03;1.52;;;26.00;1.00;;;;;;7367222;19;20010;-70
2022/08/10 09:00:45;;;;;;;6.88;1.40;;;26.30;1.00;;;;;;7364783;19;20020;-71
2022/08/10 09:03:38;;;;;;;2.80;1.23;;;26.20;1.00;;;;;;7369568;19;20445;-70
2022/08/10 09:06:23;;;;;;;2.50;1.38;;;26.00;1.00;;;;;;7367616;19;20038;-70
2022/08/10 09:09:19;;;;;;;2.65;1.42;;;25.90;1.00;;;;;;7366313;19;20094;-68
2022/08/10 09:12:07;;;;;;;5.03;1.73;;;25.80;1.00;;;;;;7360439;19;20018;-69
2022/08/10 09:14:45;;;;;;;2.30;1.25;;;26.00;1.00;;;;;;7367944;19;20106;-69
2022/08/10 09:17:24;;;;;;;2.83;1.40;;;25.90;1.00;;;;;;7365117;19;20042;-69
2022/08/10 09:20:00;;;;;;;2.85;1.30;;;26.00;1.00;;;;;;7385055;19;20018;-70
2022/08/10 09:22:35;;;;;;;5.38;1.27;;;26.20;1.00;;;;;;7366475;19;20058;-70
2022/08/10 09:25:16;;;;;;;5.97;1.30;;;26.40;1.00;;;;;;7366942;19;20050;-68
2022/08/10 09:27:50;;;;;;;4.45;1.50;;;26.10;1.00;;;;;;7364274;19;20014;-67
2022/08/10 09:30:27;;;;;;;3.80;1.40;;;26.10;1.00;;;;;;7361892;19;20014;-69
2022/08/10 09:33:10;;;;;;;4.68;1.40;;;26.20;1.00;;;;;;7363767;19;20006;-69
2022/08/10 09:36:13;;;;;;;2.72;1.40;;;26.30;1.00;;;;;;7359737;19;20010;-64
2022/08/10 09:39:12;;;;;;;2.45;1.60;;;26.40;1.00;;;;;;7366333;19;20038;-67
2022/08/10 09:42:13;;;;;;;3.05;1.15;;;26.60;1.00;;;;;;7363340;19;20015;-70
2022/08/10 09:44:57;;;;;;;3.40;1.17;;;26.50;1.00;;;;;;7365037;19;20017;-69
2022/08/10 09:47:44;;;;;;;1.98;1.58;;;26.50;1.00;;;;;;7361730;19;20038;-67
2022/08/10 09:50:41;;;;;;;1.50;1.30;;;26.40;1.00;;;;;;7363407;19;20020;-70
2022/08/10 09:53:57;;;;;;;1.67;1.10;;;26.50;1.00;;;;;;7365736;19;20022;-68
2022/08/10 09:56:35;;;;;;;4.60;1.50;;;26.50;1.00;;;;;;7363043;19;20366;-68
2022/08/10 09:59:14;;;;;;;2.78;1.60;;;26.30;1.00;;;;;;7381517;19;20011;-69
2022/08/10 10:02:20;;;;;;;2.20;1.30;;;26.40;1.00;;;;;;7355177;19;20009;-69
2022/08/10 10:05:04;;;;;;;1.92;1.20;;;26.50;1.00;;;;;;7354192;19;20568;-69
2022/08/10 10:07:36;;;;;;;;;;;26.50;1.00;;;;;;7363006;19;20025;-67
2022/08/10 10:10:13;;;;;;;1.58;0.98;;;26.80;1.00;;;;;;7361198;19;19926;-69
2022/08/10 10:12:52;;;;;;;1.20;1.10;;;26.70;1.00;;;;;;7365684;19;20042;-69
2022/08/10 10:15:33;;;;;;;2.85;1.17;;;26.90;1.00;;;;;;7365789;19;20010;-67
2022/08/10 10:18:21;;;;;;;5.18;2.03;;;26.90;1.00;;;;;;7362678;19;20032;-69
2022/08/10 10:21:00;;;;;;;2.75;1.20;;;27.20;1.00;;;;;;7362007;19;20014;-69
2022/08/10 10:23:42;;;;;;;3.50;1.38;;;27.30;1.00;;;;;;7365124;19;20017;-68
2022/08/10 10:26:42;;;;;;;1.80;1.30;;;27.30;1.00;;;;;;7367522;19;20008;-70
2022/08/10 10:29:30;;;;;;;3.63;1.38;;;27.50;1.00;;;;;;7372325;19;20021;-69
2022/08/10 10:32:27;;;;;;;3.50;1.52;;;27.50;1.00;;;;;;7353655;19;20011;-68
2022/08/10 10:35:17;;;;;;;2.42;1.30;;;27.60;1.00;;;;;;7384618;19;20044;-69
2022/08/10 10:37:49;;;;;;;1.45;1.35;;;27.50;1.00;;;;;;7360110;19;20017;-67
2022/08/10 10:40:43;;;;;;;2.17;1.25;;;27.00;1.00;;;;;;7361188;19;20006;-68
2022/08/10 10:43:27;;;;;;;3.05;1.42;;;27.20;1.00;;;;;;7362827;19;20021;-68
2022/08/10 10:46:06;;;;;;;2.38;1.52;;;27.00;1.00;;;;;;7364774;19;20515;-69
2022/08/10 10:48:41;;;;;;;1.92;1.33;;;27.30;1.00;;;;;;7360406;19;20031;-69
2022/08/10 10:51:19;;;;;;;5.13;1.45;;;27.50;1.00;;;;;;7359613;19;20486;-69
2022/08/10 10:53:58;;;;;;;3.88;1.80;;;27.70;1.00;;;;;;7364262;19;20016;-69
2022/08/10 10:56:37;;;;;;;1.73;1.20;;;27.20;1.00;;;;;;7364244;19;20710;-67
2022/08/10 10:59:19;;;;;;;3.67;1.40;;;27.00;1.00;;;;;;7380610;19;20067;-68
2022/08/10 11:02:20;;;;;;;1.67;1.15;;;27.20;1.00;;;;;;7257050;19;2004321;-68
2022/08/10 11:04:59;;;;;;;3.10;1.30;;;27.00;1.00;;;;;;7387002;19;20017;-69
2022/08/10 11:07:41;;;;;;;2.33;1.50;;;27.40;1.00;;;;;;7362281;19;20553;-68
2022/08/10 11:10:20;;;;;;;2.22;1.30;;;27.70;1.00;;;;;;7359427;19;20047;-68
2022/08/10 11:13:14;;;;;;;2.15;1.20;;;27.50;1.00;;;;;;7362606;19;20003;-69
2022/08/10 11:16:10;;;;;;;1.40;1.20;;;27.80;1.00;;;;;;7361022;19;20014;-67
2022/08/10 11:18:56;;;;;;;1.48;1.27;;;27.40;1.00;;;;;;7363359;19;20036;-69
2022/08/10 11:21:56;;;;;;;6.00;1.40;;;27.50;1.00;;;;;;7358000;19;20010;-69
2022/08/10 11:24:40;;;;;;;2.95;1.20;;;27.90;1.00;;;;;;7363989;19;20025;-68
2022/08/10 11:27:26;;;;;;;3.58;1.40;;;27.50;1.00;;;;;;7362661;19;20036;-68
2022/08/10 11:30:03;;;;;;;4.22;1.30;;;27.80;1.00;;;;;;7360368;19;20018;-68
2022/08/10 11:32:44;;;;;;;1.30;1.20;;;27.50;1.00;;;;;;7362045;19;20035;-68
2022/08/10 11:35:23;;;;;;;2.78;1.13;;;27.80;1.00;;;;;;7362593;19;20090;-68
2022/08/10 11:38:01;;;;;;;4.57;1.50;;;27.60;1.00;;;;;;7380513;19;20019;-68
2022/08/10 11:41:04;;;;;;;4.80;1.25;;;27.50;1.00;;;;;;7359028;19;20015;-69
2022/08/10 11:44:02;;;;;;;3.50;1.30;;;27.50;1.00;;;;;;7362069;19;20024;-67
2022/08/10 11:46:35;;;;;;;3.75;1.13;;;27.40;1.00;;;;;;7362018;19;20420;-68
2022/08/10 11:49:13;;;;;;;2.88;1.20;;;27.50;1.00;;;;;;7360071;19;20355;-68
2022/08/10 11:51:47;;;;;;;1.35;1.10;;;27.90;1.00;;;;;;7358025;19;20094;-69
2022/08/10 11:54:27;;;;;;;2.65;1.30;;;28.10;1.00;;;;;;7363407;19;20010;-68
2022/08/10 11:57:01;;;;;;;3.45;1.30;;;28.10;1.00;;;;;;7361574;19;20017;-68
2022/08/10 12:02:21;;;;;;;4.32;1.30;;;27.70;1.00;;;;;;7363777;19;20478;-68
2022/08/10 12:04:54;;;;;;;1.77;1.17;;;27.90;1.00;;;;;;7391966;19;20018;-68
2022/08/10 12:07:25;;;;;;;2.70;1.17;;;28.00;1.00;;;;;;7366111;19;20086;-68
2022/08/10 12:10:15;;;;;;;3.97;1.17;;;28.10;1.00;;;;;;7365246;19;20006;-67
2022/08/10 12:12:55;;;;;;;2.63;1.17;;;27.70;1.00;;;;;;7369833;19;20509;-68
2022/08/10 12:15:32;;;;;;;3.42;1.30;;;28.10;1.00;;;;;;7369505;19;20021;-63
2022/08/10 12:18:08;;;;;;;2.65;1.33;;;27.90;1.00;;;;;;7365815;19;20742;-65
2022/08/10 12:20:40;;;;;;;4.75;1.15;;;28.20;1.00;;;;;;7365392;19;20013;-69
2022/08/10 12:23:17;;;;;;;5.10;1.30;;;28.20;1.00;;;;;;7391097;19;20015;-69
2022/08/10 12:25:56;;;;;;;2.22;1.35;;;28.50;1.00;;;;;;7370892;19;20013;-68
2022/08/10 12:28:38;;;;;;;3.35;1.38;;;28.70;1.00;;;;;;7367739;19;20071;-67
2022/08/10 12:31:25;;;;;;;2.42;1.23;;;28.70;1.00;;;;;;7363068;19;20010;-68
2022/08/10 12:34:06;;;;;;;2.53;1.52;;;28.30;1.00;;;;;;7368288;19;20019;-68
2022/08/10 12:36:42;;;;;;;2.58;1.17;;;28.40;1.00;;;;;;7367867;19;20011;-68
2022/08/10 12:39:18;;;;;;;2.80;1.40;;;28.70;1.00;;;;;;7366818;19;20077;-68
2022/08/10 12:41:54;;;;;;;1.92;1.00;;;28.70;1.00;;;;;;7364304;19;20011;-68
2022/08/10 12:44:32;;;;;;;3.13;1.15;;;28.50;1.00;;;;;;7370356;19;20018;-68
2022/08/10 12:47:19;;;;;;;3.20;1.00;;;28.50;1.00;;;;;;7390908;19;20014;-69
2022/08/10 12:49:56;;;;;;;7.40;1.30;;;28.30;1.00;;;;;;7368036;19;20010;-68
2022/08/10 12:52:53;;;;;;;1.23;1.10;;;28.70;1.00;;;;;;7369163;19;20029;-69
2022/08/10 12:55:24;;;;;;;3.60;1.60;;;28.60;1.00;;;;;;7368572;19;20482;-69
2022/08/10 12:57:57;;;;;;;2.42;1.35;;;28.80;1.00;;;;;;7365240;19;20429;-68
2022/08/10 13:00:37;;;;;;;3.55;1.60;;;28.60;1.00;;;;;;7362656;19;20021;-68
2022/08/10 13:03:27;;;;;;;2.05;1.27;;;28.40;1.00;;;;;;7367305;19;20030;-68
2022/08/10 13:06:19;;;;;;;3.30;1.40;;;28.60;1.00;;;;;;7367697;19;20041;-69
2022/08/10 13:11:33;;;;;;;3.17;1.35;;;28.90;1.00;;;;;;7362503;19;20116;-67
2022/08/10 13:14:28;;;;;;;2.30;1.30;;;29.00;1.00;;;;;;7366922;19;20017;-68
2022/08/10 13:17:04;;;;;;;2.90;1.63;;;28.90;1.00;;;;;;7390039;19;20086;-69
2022/08/10 13:19:37;;;;;;;4.78;1.58;;;29.20;1.00;;;;;;7364706;19;20011;-68
2022/08/10 13:22:29;;;;;;;2.60;1.80;;;29.40;1.00;;;;;;7364517;19;20489;-69
2022/08/10 13:25:00;;;;;;;;;;;29.30;1.00;;;;;;7369428;19;20034;-69
2022/08/10 13:27:36;;;;;;;8.55;1.33;;;28.80;1.00;;;;;;7369487;19;20390;-69
2022/08/10 13:30:28;;;;;;;3.30;1.40;;;29.00;1.00;;;;;;7362776;19;20010;-69
2022/08/10 13:33:12;;;;;;;2.08;1.40;;;29.10;1.00;;;;;;7367985;19;20031;-68
2022/08/10 13:35:46;;;;;;;9.57;1.38;;;28.90;1.00;;;;;;7369495;19;20010;-64
2022/08/10 13:38:25;;;;;;;4.13;1.20;;;28.90;1.00;;;;;;7365144;19;20010;-70
2022/08/10 13:40:56;;;;;;;5.43;1.52;;;29.20;1.00;;;;;;7385251;19;20026;-70
2022/08/10 13:43:28;;;;;;;5.43;1.35;;;29.50;1.00;;;;;;7366888;19;20078;-70
2022/08/10 13:46:00;;;;;;;1.90;1.20;;;29.40;1.00;;;;;;7366907;19;20014;-70
2022/08/10 13:48:35;;;;;;;3.03;1.23;;;29.50;1.00;;;;;;7363591;19;20078;-70
2022/08/10 13:51:05;;;;;;;2.53;1.20;;;29.60;1.00;;;;;;7362928;19;20082;-69
2022/08/10 13:53:37;;;;;;;4.63;1.48;;;29.40;1.00;;;;;;7366474;19;20070;-68
2022/08/10 13:56:12;;;;;;;3.03;1.38;;;29.10;1.00;;;;;;7387637;19;20018;-71
2022/08/10 13:58:44;;;;;;;2.10;1.10;;;29.20;1.00;;;;;;7362920;19;20014;-69
2022/08/10 14:01:16;;;;;;;2.45;1.40;;;29.00;1.00;;;;;;7363131;19;20762;-69
2022/08/10 14:03:51;;;;;;;4.65;1.30;;;29.20;1.00;;;;;;7366782;19;20010;-69
2022/08/10 14:06:23;;;;;;;2.55;1.48;;;29.30;1.00;;;;;;7367181;19;20006;-69
2022/08/10 14:09:03;;;;;;;1.65;1.20;;;29.10;1.00;;;;;;7364993;19;20417;-69
2022/08/10 14:11:37;;;;;;;2.05;1.20;;;29.20;1.00;;;;;;7363685;19;20094;-69